Time;durP1;ratioP1;P1;durP2;ratioP2;P2;SDS_P1;SDS_P2;PMS_P1;PMS_P2;Temp;Humidity;BMP_temperature;BMP_pressure;BME280_temperature;BME280_humidity;BME280_pressure;Samples;Min_cycle;Max_cycle;Signal;HPM_P1;HPM_P2
2021/05/30 00:01:06;;;;;;;0.17;0.10;;;;;;;14.58;46.20;101582.00;6244408;22;20003;-73
2021/05/30 00:03:47;;;;;;;0.60;0.30;;;;;;;14.40;45.51;101562.06;6270663;22;20011;-72
2021/05/30 00:06:16;;;;;;;0.30;0.30;;;;;;;14.31;46.37;101556.22;6269371;22;19999;-72
2021/05/30 00:08:41;;;;;;;0.20;0.20;;;;;;;14.31;46.08;101566.41;6264522;22;20011;-72
2021/05/30 00:11:07;;;;;;;0.10;0.10;;;;;;;14.30;45.90;101575.72;6267541;22;20014;-72
2021/05/30 00:13:32;;;;;;;0.08;0.08;;;;;;;14.22;46.26;101566.06;6215074;22;20050;-72
2021/05/30 00:15:57;;;;;;;0.20;0.15;;;;;;;14.22;46.40;101573.47;6215523;23;20022;-72
2021/05/30 00:18:23;;;;;;;0.20;0.20;;;;;;;14.18;46.43;101572.31;6243000;23;20018;-74
2021/05/30 00:20:48;;;;;;;0.40;0.40;;;;;;;14.10;46.32;101568.94;6242534;23;20241;-74
2021/05/30 00:23:14;;;;;;;0.10;0.10;;;;;;;14.07;46.43;101574.16;6213672;23;20008;-74
2021/05/30 00:25:39;;;;;;;0.25;0.25;;;;;;;14.03;46.62;101565.63;6213030;23;20078;-74
2021/05/30 00:28:05;;;;;;;0.20;0.20;;;;;;;13.99;46.60;101560.88;6236371;23;20327;-74
2021/05/30 00:30:30;;;;;;;0.30;0.20;;;;;;;13.93;46.44;101568.25;6239678;23;20055;-75
2021/05/30 00:32:55;;;;;;;0.10;0.10;;;;;;;13.90;46.89;101568.78;6241015;22;20008;-73
2021/05/30 00:35:21;;;;;;;0.43;0.20;;;;;;;13.82;46.61;101561.00;6261638;22;20423;-74
2021/05/30 00:37:47;;;;;;;0.85;0.20;;;;;;;13.77;47.03;101559.88;6261648;22;20296;-75
2021/05/30 00:40:12;;;;;;;1.08;0.20;;;;;;;13.76;47.19;101558.19;6242855;22;20004;-73
2021/05/30 00:42:38;;;;;;;0.20;0.20;;;;;;;13.75;47.01;101573.03;6240881;22;20567;-72
2021/05/30 00:45:05;;;;;;;0.30;0.30;;;;;;;13.70;47.20;101575.75;6241538;22;20022;-72
2021/05/30 00:47:30;;;;;;;0.30;0.10;;;;;;;13.69;47.20;101574.06;6198288;23;20035;-72
2021/05/30 00:49:56;;;;;;;0.20;0.20;;;;;;;13.68;47.06;101577.94;6240766;23;20661;-73
2021/05/30 00:52:21;;;;;;;0.30;0.10;;;;;;;13.64;47.49;101564.94;6239966;23;20008;-73
2021/05/30 00:54:54;;;;;;;0.20;0.10;;;;;;;13.62;47.39;101573.44;6234508;23;20678;-73
2021/05/30 00:57:19;;;;;;;0.10;0.10;;;;;;;13.64;47.20;101575.94;6240678;22;20000;-73
2021/05/30 00:59:45;;;;;;;0.00;0.00;;;;;;;13.64;47.49;101579.53;6238421;22;20008;-73
2021/05/30 01:02:11;;;;;;;0.08;0.08;;;;;;;13.58;47.22;101573.16;6213649;23;20008;-73
2021/05/30 01:04:37;;;;;;;0.15;0.10;;;;;;;13.56;47.26;101574.47;6239768;22;20011;-72
2021/05/30 01:07:02;;;;;;;0.20;0.10;;;;;;;13.53;47.45;101572.25;6240889;22;20010;-73
2021/05/30 01:09:28;;;;;;;0.10;0.10;;;;;;;13.49;47.79;101579.34;6242374;22;20099;-73
2021/05/30 01:11:57;;;;;;;0.52;0.52;;;;;;;13.35;48.10;101568.75;6257605;22;20018;-72
2021/05/30 01:14:23;;;;;;;0.43;0.40;;;;;;;13.37;47.81;101565.75;6305041;22;20003;-73
2021/05/30 01:16:49;;;;;;;0.50;0.28;;;;;;;13.32;47.75;101568.44;6303196;22;20003;-73
2021/05/30 01:19:16;;;;;;;0.10;0.10;;;;;;;13.33;48.33;101581.06;6251828;22;20090;-73
2021/05/30 01:21:46;;;;;;;0.20;0.20;;;;;;;13.30;47.84;101570.56;6239053;22;20011;-74
2021/05/30 01:24:15;;;;;;;0.30;0.20;;;;;;;13.30;48.07;101574.16;6275804;22;20294;-74
2021/05/30 01:26:41;;;;;;;0.35;0.35;;;;;;;13.26;48.57;101570.28;6277348;22;20334;-73
2021/05/30 01:29:07;;;;;;;0.50;0.50;;;;;;;13.23;48.45;101576.28;6275410;22;20012;-74
2021/05/30 01:31:32;;;;;;;0.30;0.30;;;;;;;13.12;48.57;101563.50;6302367;22;20010;-74
2021/05/30 01:33:58;;;;;;;0.30;0.30;;;;;;;13.15;48.82;101571.22;6304176;22;19999;-77
2021/05/30 01:36:28;;;;;;;0.38;0.38;;;;;;;13.01;48.58;101552.38;6274087;22;20003;-78
2021/05/30 01:38:53;;;;;;;0.40;0.40;;;;;;;13.10;49.09;101564.56;6274694;22;20334;-78
2021/05/30 01:41:19;;;;;;;0.40;0.40;;;;;;;12.92;48.66;101546.50;6276764;22;20011;-79
2021/05/30 01:43:46;;;;;;;0.32;0.32;;;;;;;12.88;49.16;101544.53;6306035;22;20074;-79
2021/05/30 01:46:12;;;;;;;0.20;0.20;;;;;;;12.96;49.05;101560.53;6304615;22;20083;-79
2021/05/30 01:48:37;;;;;;;0.30;0.20;;;;;;;12.88;48.90;101553.59;6277564;22;20363;-79
2021/05/30 01:51:03;;;;;;;0.55;0.20;;;;;;;12.89;48.94;101554.41;6249747;22;20007;-79
2021/05/30 01:53:54;;;;;;;0.30;0.30;;;;;;;12.83;49.25;101555.44;6304017;22;20019;-78
2021/05/30 01:59:04;;;;;;;1.50;0.55;;;;;;;12.72;49.32;101552.53;6307153;22;20042;-79
2021/05/30 02:01:35;;;;;;;0.55;0.55;;;;;;;12.70;49.90;101546.50;6302899;22;20086;-79
2021/05/30 02:04:05;;;;;;;0.40;0.40;;;;;;;12.64;49.88;101538.44;6303290;22;20003;-80
2021/05/30 02:06:32;;;;;;;0.32;0.32;;;;;;;12.69;50.13;101555.78;6279567;22;20040;-80
2021/05/30 02:08:58;;;;;;;0.30;0.30;;;;;;;12.70;49.94;101551.97;6278431;22;20003;-80
2021/05/30 02:11:24;;;;;;;0.43;0.30;;;;;;;12.68;50.29;101550.56;6254161;22;20004;-74
2021/05/30 02:13:52;;;;;;;0.52;0.43;;;;;;;12.69;50.15;101552.22;6276742;22;20148;-74
2021/05/30 02:16:18;;;;;;;0.93;0.52;;;;;;;12.61;50.58;101542.50;6278122;22;20038;-74
2021/05/30 02:18:43;;;;;;;0.50;0.50;;;;;;;12.58;50.31;101551.25;6304403;22;20034;-74
2021/05/30 02:21:12;;;;;;;0.55;0.55;;;;;;;12.55;50.34;101547.06;6279061;22;20352;-74
2021/05/30 02:23:42;;;;;;;0.73;0.73;;;;;;;12.50;51.10;101546.16;6264828;22;20034;-76
2021/05/30 02:26:07;;;;;;;1.25;1.25;;;;;;;12.61;51.24;101558.16;6318923;22;20432;-75
2021/05/30 02:28:33;;;;;;;1.00;1.00;;;;;;;12.60;51.20;101556.47;6282560;22;20011;-75
2021/05/30 02:30:58;;;;;;;0.93;0.93;;;;;;;12.55;51.30;101558.06;6290317;22;20007;-75
2021/05/30 02:33:24;;;;;;;0.80;0.80;;;;;;;12.50;51.47;101551.66;6316997;22;20003;-74
2021/05/30 02:35:49;;;;;;;0.55;0.55;;;;;;;12.46;51.40;101556.00;6256731;22;20502;-74
2021/05/30 02:38:15;;;;;;;0.80;0.80;;;;;;;12.35;51.88;101552.25;6300666;22;20014;-74
2021/05/30 02:40:41;;;;;;;1.05;0.60;;;;;;;12.25;52.06;101539.25;6279650;22;20413;-74
2021/05/30 02:43:06;;;;;;;1.23;0.75;;;;;;;12.27;52.14;101550.78;6306592;22;20007;-78
2021/05/30 02:45:32;;;;;;;0.80;0.80;;;;;;;12.12;52.51;101534.91;6275128;22;20003;-79
2021/05/30 02:47:57;;;;;;;1.08;0.70;;;;;;;12.13;52.82;101542.03;6278180;22;20007;-77
2021/05/30 02:50:23;;;;;;;0.88;0.88;;;;;;;12.15;52.43;101560.97;6273188;22;20026;-77
2021/05/30 02:52:48;;;;;;;0.70;0.70;;;;;;;12.08;52.51;101549.38;6301085;22;20007;-78
2021/05/30 02:55:15;;;;;;;0.50;0.50;;;;;;;12.01;52.81;101550.34;6271793;22;20102;-79
2021/05/30 02:57:41;;;;;;;0.55;0.35;;;;;;;11.94;52.77;101549.66;6280022;22;19999;-79
2021/05/30 03:00:08;;;;;;;1.15;0.40;;;;;;;11.95;53.16;101562.31;6253930;22;20013;-78
2021/05/30 03:02:33;;;;;;;0.55;0.55;;;;;;;11.92;53.03;101562.78;6303338;22;20007;-79
2021/05/30 03:04:59;;;;;;;0.35;0.35;;;;;;;11.83;53.46;101559.59;6252233;22;20011;-78
2021/05/30 03:07:24;;;;;;;0.52;0.40;;;;;;;11.79;53.34;101563.09;6275565;22;20042;-78
2021/05/30 03:09:50;;;;;;;0.30;0.30;;;;;;;11.73;53.25;101561.34;6278064;22;20038;-77
2021/05/30 03:12:16;;;;;;;0.40;0.40;;;;;;;11.64;53.41;101550.75;6303931;22;20088;-79
2021/05/30 03:14:42;;;;;;;0.65;0.65;;;;;;;11.60;53.63;101555.06;6303912;22;20022;-79
2021/05/30 03:17:07;;;;;;;0.43;0.43;;;;;;;11.55;53.93;101556.88;6252675;22;20430;-80
2021/05/30 03:19:33;;;;;;;0.57;0.38;;;;;;;11.53;53.72;101559.88;6280896;22;20572;-80
2021/05/30 03:21:58;;;;;;;1.10;1.10;;;;;;;11.46;54.29;101557.28;6279601;22;20007;-80
2021/05/30 03:24:24;;;;;;;1.10;0.93;;;;;;;11.48;54.30;101562.53;6248507;22;20004;-80
2021/05/30 03:26:51;;;;;;;2.30;0.82;;;;;;;11.44;54.25;101561.34;6274631;22;20452;-78
2021/05/30 03:29:16;;;;;;;0.80;0.80;;;;;;;11.36;54.89;101548.88;6307445;22;20057;-79
2021/05/30 03:31:42;;;;;;;0.65;0.65;;;;;;;11.35;54.86;101558.16;6277052;22;20007;-78
2021/05/30 03:34:07;;;;;;;1.02;0.95;;;;;;;11.30;55.11;101558.91;6280951;22;20603;-79
2021/05/30 03:36:35;;;;;;;1.10;1.10;;;;;;;11.26;54.94;101554.97;6252481;22;20003;-81
2021/05/30 03:39:06;;;;;;;0.95;0.85;;;;;;;11.20;54.96;101555.09;6280649;22;19999;-79
2021/05/30 03:41:38;;;;;;;1.23;1.23;;;;;;;11.21;55.98;101563.06;6280542;22;20321;-79
2021/05/30 03:44:04;;;;;;;0.82;0.82;;;;;;;11.18;55.97;101569.03;6276238;22;19995;-81
2021/05/30 03:46:30;;;;;;;0.77;0.77;;;;;;;11.12;55.69;101548.09;6280153;22;20046;-80
2021/05/30 03:48:57;;;;;;;1.02;0.93;;;;;;;11.04;55.97;101551.22;6307663;22;19999;-77
2021/05/30 03:51:23;;;;;;;0.68;0.68;;;;;;;11.10;55.43;101566.69;6270730;22;20090;-78
2021/05/30 03:53:48;;;;;;;1.02;1.02;;;;;;;11.09;55.50;101565.84;6308384;22;20077;-77
2021/05/30 03:56:14;;;;;;;1.50;1.40;;;;;;;11.05;56.18;101559.19;6298486;22;20631;-78
2021/05/30 03:58:40;;;;;;;0.85;0.85;;;;;;;11.04;55.80;101567.63;6306765;22;20477;-80
2021/05/30 04:01:06;;;;;;;1.20;1.00;;;;;;;10.93;56.04;101540.03;6274069;22;20007;-79
2021/05/30 04:03:31;;;;;;;1.08;1.08;;;;;;;10.97;56.08;101554.91;6271789;22;20060;-79
2021/05/30 04:05:57;;;;;;;0.70;0.63;;;;;;;10.97;56.66;101545.88;6308141;22;19995;-79
2021/05/30 04:08:27;;;;;;;0.82;0.82;;;;;;;11.02;56.24;101553.38;6277793;22;20007;-79
2021/05/30 04:10:53;;;;;;;1.65;1.55;;;;;;;11.01;56.19;101555.28;6291372;22;20018;-80
2021/05/30 04:13:23;;;;;;;0.52;0.52;;;;;;;10.95;55.66;101539.81;6267742;22;20106;-80
2021/05/30 04:15:49;;;;;;;0.60;0.60;;;;;;;11.02;56.31;101553.38;6296650;22;19999;-80
2021/05/30 04:18:14;;;;;;;3.70;0.70;;;;;;;11.00;56.87;101561.81;6291355;22;20013;-80
2021/05/30 04:20:39;;;;;;;0.63;0.63;;;;;;;10.96;56.82;101555.97;6276518;22;20086;-79
2021/05/30 04:23:05;;;;;;;0.40;0.40;;;;;;;10.98;57.19;101556.59;6306046;22;20003;-79
2021/05/30 04:25:31;;;;;;;0.73;0.73;;;;;;;10.92;56.91;101541.13;6279004;22;20038;-79
2021/05/30 04:27:56;;;;;;;0.60;0.60;;;;;;;10.89;57.40;101538.84;6292115;22;20003;-79
2021/05/30 04:30:22;;;;;;;0.60;0.60;;;;;;;11.05;57.08;101558.34;6319323;22;19999;-79
2021/05/30 04:32:47;;;;;;;2.17;2.08;;;;;;;11.05;57.64;101556.44;6292321;22;20011;-81
2021/05/30 04:35:13;;;;;;;2.78;2.53;;;;;;;10.99;58.15;101550.06;6292421;22;20094;-79
2021/05/30 04:37:39;;;;;;;2.20;2.00;;;;;;;11.02;57.55;101558.84;6310645;22;20007;-80
2021/05/30 04:40:06;;;;;;;2.42;2.33;;;;;;;11.02;57.81;101561.56;6290413;22;19999;-78
2021/05/30 04:42:39;;;;;;;1.50;1.40;;;;;;;10.98;58.17;101564.81;6303925;22;20003;-78
2021/05/30 04:45:05;;;;;;;1.27;1.17;;;;;;;11.04;57.47;101554.78;6285080;22;20010;-79
2021/05/30 04:47:31;;;;;;;1.05;1.05;;;;;;;11.07;57.71;101558.94;6289341;22;20437;-78
2021/05/30 04:49:56;;;;;;;1.20;1.10;;;;;;;11.10;57.99;101556.56;6286106;22;20011;-78
2021/05/30 04:52:22;;;;;;;0.50;0.50;;;;;;;11.14;57.60;101557.75;6251195;22;20023;-76
2021/05/30 04:54:55;;;;;;;3.25;1.33;;;;;;;11.27;58.57;101564.84;6249235;22;20009;-77
2021/05/30 04:57:21;;;;;;;1.38;1.27;;;;;;;11.27;58.13;101555.78;6284677;22;20008;-78
2021/05/30 04:59:55;;;;;;;1.48;1.38;;;;;;;11.31;57.80;101552.31;6226076;22;20087;-77
2021/05/30 05:02:20;;;;;;;2.20;2.10;;;;;;;11.35;57.93;101545.28;6263168;22;20014;-78
2021/05/30 05:04:46;;;;;;;2.10;2.00;;;;;;;11.55;57.75;101552.25;6282270;22;20007;-80
2021/05/30 05:07:19;;;;;;;2.78;2.67;;;;;;;11.57;58.38;101550.09;6309170;22;20010;-77
2021/05/30 05:09:47;;;;;;;2.13;2.03;;;;;;;11.61;58.04;101550.41;6279486;22;20007;-77
2021/05/30 05:12:20;;;;;;;1.83;1.73;;;;;;;11.76;57.67;101552.63;6290380;22;20027;-76
2021/05/30 05:14:45;;;;;;;2.00;1.90;;;;;;;11.81;57.72;101549.97;6296700;22;20007;-76
2021/05/30 05:17:11;;;;;;;1.77;1.67;;;;;;;11.95;57.71;101551.34;6305793;22;20003;-77
2021/05/30 05:19:36;;;;;;;2.17;2.08;;;;;;;12.14;57.99;101553.84;6301036;22;20376;-77
2021/05/30 05:22:06;;;;;;;2.65;2.55;;;;;;;12.16;57.79;101547.06;6275693;22;20490;-78
2021/05/30 05:24:32;;;;;;;2.25;2.15;;;;;;;12.35;57.38;101566.81;6284225;22;20481;-75
2021/05/30 05:26:59;;;;;;;2.53;2.40;;;;;;;12.39;57.57;101562.47;6307322;22;20042;-79
2021/05/30 05:29:27;;;;;;;4.10;3.90;;;;;;;12.46;57.60;101564.25;6316664;22;20003;-81
2021/05/30 05:32:06;;;;;;;2.33;2.22;;;;;;;12.56;57.18;101569.88;6272842;22;20010;-80
2021/05/30 05:34:32;;;;;;;4.13;3.90;;;;;;;12.58;57.60;101564.97;6288369;22;20083;-79
2021/05/30 05:37:05;;;;;;;6.97;3.70;;;;;;;12.66;57.35;101556.31;6309808;22;20050;-79
2021/05/30 05:39:37;;;;;;;3.95;3.65;;;;;;;12.67;57.09;101541.47;6281678;22;20098;-78
2021/05/30 05:42:05;;;;;;;3.60;3.40;;;;;;;12.75;57.33;101554.78;6273046;22;20470;-73
2021/05/30 05:44:32;;;;;;;3.67;3.38;;;;;;;12.74;56.90;101542.13;6321221;22;20029;-72
2021/05/30 05:46:58;;;;;;;3.80;3.50;;;;;;;12.84;57.06;101551.63;6291623;22;20039;-72
2021/05/30 05:49:25;;;;;;;4.57;4.25;;;;;;;12.86;57.32;101554.91;6279784;22;20401;-72
2021/05/30 05:51:56;;;;;;;4.47;4.18;;;;;;;12.93;57.36;101561.88;6276744;22;20005;-71
2021/05/30 05:54:29;;;;;;;3.90;3.58;;;;;;;13.04;56.94;101578.47;6276589;22;20050;-72
2021/05/30 05:56:56;;;;;;;3.90;3.70;;;;;;;13.08;56.93;101575.00;6277613;22;20090;-72
2021/05/30 05:59:22;;;;;;;4.43;4.13;;;;;;;13.13;57.41;101576.13;6303206;22;19995;-72
2021/05/30 06:01:49;;;;;;;4.05;3.75;;;;;;;13.13;57.03;101566.00;6263305;22;20010;-73
2021/05/30 06:04:18;;;;;;;4.35;3.95;;;;;;;13.23;57.35;101568.03;6306243;22;20021;-73
2021/05/30 06:07:02;;;;;;;3.83;3.63;;;;;;;13.33;57.09;101570.91;6276436;22;19999;-73
2021/05/30 06:09:28;;;;;;;3.83;3.63;;;;;;;13.42;57.34;101569.41;6278083;22;20007;-72
2021/05/30 06:12:01;;;;;;;4.10;3.90;;;;;;;13.43;56.77;101554.56;6299876;22;20083;-72
2021/05/30 06:14:29;;;;;;;4.05;3.85;;;;;;;13.57;57.68;101568.72;6277492;22;20031;-72
2021/05/30 06:16:59;;;;;;;3.75;3.55;;;;;;;13.62;56.73;101556.94;6303171;22;20009;-72
2021/05/30 06:19:26;;;;;;;3.45;3.15;;;;;;;13.75;56.93;101562.03;6302823;22;20414;-73
2021/05/30 06:21:54;;;;;;;4.90;4.00;;;;;;;13.82;56.77;101558.25;6276300;22;20098;-72
2021/05/30 06:24:24;;;;;;;3.20;3.10;;;;;;;13.89;57.16;101556.97;6270070;22;20069;-72
2021/05/30 06:26:57;;;;;;;3.55;3.35;;;;;;;13.99;57.15;101555.38;6293996;22;20102;-71
2021/05/30 06:29:22;;;;;;;3.90;3.70;;;;;;;14.05;56.84;101557.91;6273163;22;20370;-74
2021/05/30 06:31:54;;;;;;;3.65;3.45;;;;;;;14.22;56.29;101559.69;6275519;22;20061;-72
2021/05/30 06:34:50;;;;;;;5.05;4.65;;;;;;;14.23;56.47;101555.88;6277540;22;20084;-73
2021/05/30 06:37:16;;;;;;;3.50;3.20;;;;;;;14.41;56.31;101560.97;6279255;22;20007;-72
2021/05/30 06:39:44;;;;;;;3.25;3.05;;;;;;;14.43;56.17;101550.50;6303142;22;20014;-73
2021/05/30 06:42:12;;;;;;;4.75;3.67;;;;;;;14.51;55.86;101537.34;6277713;22;20441;-72
2021/05/30 06:44:40;;;;;;;3.42;3.22;;;;;;;14.68;55.87;101546.31;6303704;22;19995;-73
2021/05/30 06:47:06;;;;;;;4.10;3.85;;;;;;;14.76;55.85;101548.56;6272346;22;20383;-72
2021/05/30 06:49:33;;;;;;;3.45;3.25;;;;;;;14.85;56.03;101535.13;6278341;22;20039;-73
2021/05/30 06:51:59;;;;;;;3.00;2.80;;;;;;;14.98;56.02;101537.38;6273861;22;20029;-76
2021/05/30 06:54:32;;;;;;;4.47;4.15;;;;;;;15.16;55.68;101540.75;6297248;22;20003;-74
2021/05/30 06:57:00;;;;;;;3.55;3.35;;;;;;;15.19;55.23;101531.94;6274133;22;20035;-74
2021/05/30 06:59:28;;;;;;;4.35;3.58;;;;;;;15.31;55.46;101548.25;6252389;22;20007;-74
2021/05/30 07:01:54;;;;;;;3.50;3.30;;;;;;;15.40;55.19;101541.09;6300193;22;20023;-73
2021/05/30 07:04:21;;;;;;;4.68;4.13;;;;;;;15.51;55.02;101545.53;6299009;22;20502;-74
2021/05/30 07:06:49;;;;;;;5.18;4.35;;;;;;;15.65;54.53;101553.28;6277566;22;20015;-74
2021/05/30 07:09:15;;;;;;;4.53;4.13;;;;;;;15.64;54.44;101546.13;6295183;22;20066;-73
2021/05/30 07:12:26;;;;;;;;;;;;;;;;;;;;;
2021/05/30 07:18:31;;;;;;;;;;;;;;;;;;;;;
2021/05/30 07:21:50;;;;;;;3.72;3.38;;;;;;;16.12;53.44;101540.38;6304589;22;20082;-74
2021/05/30 07:24:16;;;;;;;10.13;4.00;;;;;;;16.11;53.11;101539.56;6177158;23;20060;-74
2021/05/30 07:26:42;;;;;;;3.90;3.60;;;;;;;16.27;53.07;101558.91;6294410;22;20007;-75
2021/05/30 07:29:11;;;;;;;6.68;3.70;;;;;;;16.26;53.25;101529.63;6295669;22;20003;-74
2021/05/30 07:31:55;;;;;;;;;;;;;;;;;;;;;
2021/05/30 07:34:24;;;;;;;3.70;3.50;;;;;;;16.48;52.73;101532.09;6303794;22;20082;-74
2021/05/30 07:36:54;;;;;;;2.92;2.72;;;;;;;16.67;52.83;101543.34;6272287;22;20038;-74
2021/05/30 07:39:20;;;;;;;4.03;3.72;;;;;;;16.78;52.41;101546.91;6250269;22;20014;-74
2021/05/30 07:41:58;;;;;;;;;;;;;;;;;;;;;
2021/05/30 07:44:24;;;;;;;5.80;3.97;;;;;;;16.90;52.17;101533.66;6304215;22;20087;-74
2021/05/30 07:46:49;;;;;;;2.47;2.38;;;;;;;17.10;51.74;101541.03;6250156;22;20086;-74
2021/05/30 07:49:17;;;;;;;4.28;2.90;;;;;;;17.23;51.72;101537.66;6275298;22;20044;-73
2021/05/30 07:51:50;;;;;;;4.13;3.83;;;;;;;17.28;51.12;101539.56;6297936;22;20007;-74
2021/05/30 07:54:39;;;;;;;4.05;3.78;;;;;;;17.38;51.08;101552.53;6275525;22;20039;-74
2021/05/30 07:57:07;;;;;;;4.25;3.92;;;;;;;17.32;50.87;101523.22;6301510;22;20418;-74
2021/05/30 08:00:02;;;;;;;4.03;3.72;;;;;;;17.43;50.90;101542.28;6251101;22;20014;-74
2021/05/30 08:02:38;;;;;;;7.25;3.60;;;;;;;17.41;50.52;101527.06;6281882;22;20015;-74
2021/05/30 08:05:21;;;;;;;3.67;3.47;;;;;;;17.53;50.87;101535.81;6277166;22;19991;-74
2021/05/30 08:07:55;;;;;;;4.00;3.80;;;;;;;17.63;50.68;101535.75;6298616;22;19999;-74
2021/05/30 08:11:10;;;;;;;4.85;3.70;;;;;;;17.66;50.65;101528.03;6276392;22;20430;-74
2021/05/30 08:13:45;;;;;;;7.93;3.60;;;;;;;17.81;50.31;101544.50;6236705;22;20055;-74
2021/05/30 08:17:15;;;;;;;4.90;3.35;;;;;;;18.01;50.28;101539.97;6241134;23;20008;-74
2021/05/30 08:24:23;;;;;;;;;;;;;;;;;;;;;
2021/05/30 08:31:09;;;;;;;3.42;2.90;;;;;;;18.28;48.15;101512.59;6064651;23;20042;-75
2021/05/30 08:33:58;;;;;;;9.00;4.95;;;;;;;18.40;47.77;101531.59;6080455;23;20012;-74
2021/05/30 09:07:58;;;;;;;;;;;;;;;;;;;;;
2021/05/30 09:14:16;;;;;;;4.03;3.58;;;;;;;19.48;46.38;101537.81;5763121;24;20065;-73
2021/05/30 09:23:58;;;;;;;4.35;3.92;;;;;;;19.54;46.36;101519.97;6120763;23;20017;-73
2021/05/30 09:37:34;;;;;;;3.33;3.13;;;;;;;19.79;45.60;101534.59;5977172;23;20539;-73
2021/05/30 09:40:49;;;;;;;4.50;3.72;;;;;;;19.87;46.00;101531.13;6060336;23;20146;-73
2021/05/30 09:47:02;;;;;;;2.25;2.15;;;;;;;20.29;45.00;101523.75;6119736;23;20006;-74
2021/05/30 09:50:07;;;;;;;5.97;3.65;;;;;;;20.54;44.51;101535.53;6151679;23;20013;-76
2021/05/30 09:52:51;;;;;;;3.47;2.60;;;;;;;20.57;44.12;101516.28;6148453;23;20010;-75
2021/05/30 09:55:31;;;;;;;2.17;1.98;;;;;;;20.81;43.94;101522.78;6297929;22;20010;-72
2021/05/30 09:58:50;;;;;;;2.85;2.65;;;;;;;21.35;43.54;101521.09;6302930;22;19995;-75
2021/05/30 10:01:57;;;;;;;3.30;3.10;;;;;;;21.98;42.89;101521.31;6230939;23;20012;-74
2021/05/30 10:04:45;;;;;;;3.10;2.90;;;;;;;22.80;42.13;101513.56;6262389;22;20011;-75
2021/05/30 10:07:19;;;;;;;2.53;2.38;;;;;;;23.41;40.27;101504.53;6295742;22;19996;-74
2021/05/30 10:09:48;;;;;;;1.98;1.83;;;;;;;24.34;39.62;101507.03;6303934;22;20065;-73
2021/05/30 10:12:33;;;;;;;;;;;;;;;;;;;;;
2021/05/30 10:15:02;;;;;;;2.30;2.20;;;;;;;26.42;35.88;101533.13;6282970;22;20062;-72
2021/05/30 10:17:32;;;;;;;2.22;2.13;;;;;;;27.22;34.71;101528.09;6305735;22;20063;-73
2021/05/30 10:20:06;;;;;;;1.52;1.42;;;;;;;28.12;33.75;101514.72;6254492;22;20007;-74
2021/05/30 10:22:33;;;;;;;1.20;1.10;;;;;;;29.29;34.42;101524.84;6251821;22;20797;-73
2021/05/30 10:25:02;;;;;;;0.93;0.93;;;;;;;30.48;31.51;101518.81;6277822;22;20007;-73
2021/05/30 10:27:29;;;;;;;1.58;1.48;;;;;;;31.27;29.35;101522.84;6252950;22;20106;-72
2021/05/30 10:31:14;;;;;;;;;;;;;;;;;;;;;
2021/05/30 10:34:59;;;;;;;;;;;;;;;;;;;;;
2021/05/30 10:37:25;;;;;;;5.22;1.15;;;;;;;34.05;25.46;101508.97;6140405;23;20080;-74
2021/05/30 10:40:21;;;;;;;0.60;0.60;;;;;;;34.75;24.58;101532.13;6269977;22;20038;-72
2021/05/30 10:57:47;;;;;;;;;;;;;;;;;;;;;
2021/05/30 11:04:20;;;;;;;0.70;0.70;;;;;;;36.91;18.75;101541.69;6032132;23;20011;-76
2021/05/30 11:06:57;;;;;;;1.98;1.40;;;;;;;37.12;18.92;101525.59;6053954;23;20014;-75
2021/05/30 11:13:56;;;;;;;1.00;1.00;;;;;;;38.06;18.22;101514.63;6036371;23;20051;-75
2021/05/30 11:16:48;;;;;;;0.60;0.50;;;;;;;38.55;17.93;101519.16;6028088;23;20081;-77
2021/05/30 11:19:18;;;;;;;1.27;0.65;;;;;;;39.13;18.71;101516.09;6202210;23;20445;-77
2021/05/30 11:21:51;;;;;;;3.53;0.93;;;;;;;39.34;17.54;101520.56;6241812;23;20000;-77
2021/05/30 11:24:24;;;;;;;0.70;0.52;;;;;;;39.40;17.58;101507.34;6206129;23;20416;-77
2021/05/30 11:27:07;;;;;;;0.55;0.55;;;;;;;39.73;17.56;101510.31;6245611;23;20004;-76
2021/05/30 11:29:33;;;;;;;0.75;0.55;;;;;;;39.93;17.26;101515.22;6184828;23;20009;-76
2021/05/30 11:32:30;;;;;;;;;;;;;;;;;;;;;
2021/05/30 11:34:48;;;;;;;0.50;0.50;;;;;;;40.47;16.07;101491.03;6236497;23;19996;-77
2021/05/30 11:37:16;;;;;;;0.73;0.50;;;;;;;40.40;16.16;101491.97;6243337;23;20007;-76
2021/05/30 11:39:46;;;;;;;0.35;0.35;;;;;;;40.61;16.25;101493.50;6244151;23;20075;-76
2021/05/30 11:42:26;;;;;;;0.50;0.50;;;;;;;40.78;15.54;101485.66;6239803;23;20000;-76
2021/05/30 11:44:59;;;;;;;0.57;0.50;;;;;;;40.79;15.85;101490.13;6237346;23;20489;-77
2021/05/30 11:47:42;;;;;;;;;;;;;;;;;;;;;
2021/05/30 11:50:42;;;;;;;0.73;0.70;;;;;;;40.86;15.11;101499.78;6241014;23;20091;-77
2021/05/30 11:53:35;;;;;;;0.68;0.57;;;;;;;40.81;15.64;101489.69;6243833;22;20000;-77
2021/05/30 11:56:09;;;;;;;0.40;0.40;;;;;;;40.87;15.69;101472.75;6208615;23;20331;-77
2021/05/30 11:58:54;;;;;;;0.50;0.50;;;;;;;40.80;15.53;101476.59;6241388;23;20030;-76
2021/05/30 12:01:48;;;;;;;0.25;0.25;;;;;;;40.61;15.57;101496.38;6240255;23;20389;-76
2021/05/30 12:04:30;;;;;;;0.70;0.70;;;;;;;40.63;15.35;101487.31;6236566;22;20780;-77
2021/05/30 12:07:05;;;;;;;0.50;0.50;;;;;;;40.41;15.53;101482.13;6238433;23;20012;-76
2021/05/30 12:12:54;;;;;;;0.40;0.40;;;;;;;40.34;15.63;101476.59;6242938;23;20039;-75
2021/05/30 12:19:10;;;;;;;;;;;;;;;41.04;14.91;101488.66;6252884;22;20042;-76
2021/05/30 12:21:41;;;;;;;0.30;0.30;;;;;;;40.27;15.36;101479.63;6250598;22;20330;-76
2021/05/30 12:24:09;;;;;;;0.50;0.50;;;;;;;39.71;15.46;101469.91;6243823;22;20000;-76
2021/05/30 12:26:36;;;;;;;0.70;0.70;;;;;;;39.61;15.79;101482.41;6231242;23;20386;-77
2021/05/30 12:29:01;;;;;;;0.65;0.65;;;;;;;39.68;15.58;101464.28;6241905;23;20490;-77
2021/05/30 12:31:27;;;;;;;0.60;0.60;;;;;;;39.66;15.37;101461.03;6233288;23;20049;-76
2021/05/30 12:34:01;;;;;;;0.40;0.40;;;;;;;39.72;15.77;101471.53;6243685;22;20012;-77
2021/05/30 12:36:31;;;;;;;;;;;;;;;40.62;15.37;101468.50;6234111;22;20028;-76
2021/05/30 12:39:07;;;;;;;0.65;0.65;;;;;;;41.01;15.65;101466.63;6240095;22;19911;-76
2021/05/30 12:41:42;;;;;;;2.38;0.70;;;;;;;42.23;15.22;101458.38;6237305;22;20026;-77
2021/05/30 12:44:43;;;;;;;0.73;0.73;;;;;;;43.53;14.15;101463.91;6238075;23;20028;-77
2021/05/30 12:47:24;;;;;;;1.05;1.05;;;;;;;43.97;13.33;101456.38;6230788;22;20050;-76
2021/05/30 12:50:20;;;;;;;0.80;0.80;;;;;;;44.44;12.92;101466.75;6239360;22;20023;-77
2021/05/30 12:53:03;;;;;;;1.10;1.10;;;;;;;44.51;12.21;101460.66;6235166;23;20427;-79
2021/05/30 12:55:40;;;;;;;1.38;1.38;;;;;;;44.42;12.28;101454.88;6243496;23;20000;-79
2021/05/30 12:58:18;;;;;;;1.20;1.20;;;;;;;44.71;11.95;101450.75;6239894;23;20057;-79
2021/05/30 13:00:44;;;;;;;1.27;1.27;;;;;;;44.50;11.50;101459.06;6240196;23;20012;-80
2021/05/30 13:03:10;;;;;;;1.30;1.27;;;;;;;44.25;11.83;101460.16;6240908;23;20020;-80
2021/05/30 13:05:41;;;;;;;0.95;0.95;;;;;;;44.18;11.77;101452.59;6201730;23;20331;-79
2021/05/30 13:08:13;;;;;;;1.40;0.93;;;;;;;43.71;11.68;101447.97;6239832;23;20004;-79
2021/05/30 13:10:59;;;;;;;1.20;1.20;;;;;;;42.93;11.61;101443.97;6244378;23;20127;-79
2021/05/30 13:13:28;;;;;;;0.93;0.93;;;;;;;42.09;12.35;101440.34;6244754;22;20023;-79
2021/05/30 13:15:53;;;;;;;1.35;0.85;;;;;;;41.43;12.53;101429.34;6305239;22;20015;-79
2021/05/30 13:18:19;;;;;;;1.08;1.08;;;;;;;40.92;12.60;101426.31;6304400;22;20003;-79
2021/05/30 13:20:55;;;;;;;0.90;0.90;;;;;;;40.73;12.76;101423.16;6302982;22;20014;-79
2021/05/30 13:23:36;;;;;;;0.90;0.90;;;;;;;40.76;13.13;101416.53;6305180;22;20425;-79
2021/05/30 13:26:11;;;;;;;0.90;0.90;;;;;;;40.92;12.49;101423.47;6276356;22;20412;-80
2021/05/30 13:28:56;;;;;;;;;;;;;;;;;;;;;
2021/05/30 13:31:24;;;;;;;0.80;0.80;;;;;;;40.63;12.72;101410.72;6306443;22;20460;-80
2021/05/30 13:34:11;;;;;;;1.33;1.20;;;;;;;40.65;13.08;101421.75;6311654;22;20015;-82
2021/05/30 13:36:47;;;;;;;;;;;;;;;;;;;;;
2021/05/30 13:40:05;;;;;;;1.00;1.00;;;;;;;41.14;13.12;101418.69;6310847;22;20093;-83
2021/05/30 13:46:18;;;;;;;;;;;;;;;;;;;;;
2021/05/30 13:49:40;;;;;;;;;;;;;;;;;;;;;
2021/05/30 14:07:11;;;;;;;;;;;;;;;;;;;;;
2021/05/30 14:21:01;;;;;;;0.50;0.50;;;;;;;46.53;9.39;101378.69;5963897;24;20076;-82
2021/05/30 14:23:59;;;;;;;0.55;0.55;;;;;;;46.68;8.75;101382.38;6121318;23;20034;-79
2021/05/30 14:37:04;;;;;;;;;;;;;;;;;;;;;